Time;durP1;ratioP1;P1;durP2;ratioP2;P2;SDS_P1;SDS_P2;PMS_P1;PMS_P2;Temp;Humidity;BMP_temperature;BMP_pressure;BME280_temperature;BME280_humidity;BME280_pressure;Samples;Min_cycle;Max_cycle;Signal;HPM_P1;HPM_P2
2020/12/09 00:02:19;;;;;;;44.90;19.20;;;3.70;92.00;;;;;;4889861;29;20469;-92
2020/12/09 00:04:45;;;;;;;47.67;19.83;;;3.70;91.90;;;;;;4891008;29;20509;-91
2020/12/09 00:07:11;;;;;;;44.63;20.17;;;3.70;91.70;;;;;;4890750;29;20123;-92
2020/12/09 00:09:36;;;;;;;48.30;19.20;;;3.70;91.70;;;;;;4893150;29;20065;-91
2020/12/09 00:12:02;;;;;;;41.23;19.27;;;3.70;91.70;;;;;;4899640;29;20043;-92
2020/12/09 00:14:27;;;;;;;46.20;19.53;;;3.60;91.70;;;;;;4890110;29;20120;-92
2020/12/09 00:16:53;;;;;;;48.07;18.90;;;3.60;91.70;;;;;;4890158;29;20029;-92
2020/12/09 00:19:19;;;;;;;51.00;19.80;;;3.60;91.80;;;;;;4889659;29;20029;-93
2020/12/09 00:21:45;;;;;;;43.70;19.47;;;3.60;91.80;;;;;;4889762;29;20033;-92
2020/12/09 00:24:10;;;;;;;49.97;18.77;;;3.60;91.80;;;;;;4890415;29;20119;-91
2020/12/09 00:26:36;;;;;;;48.77;18.30;;;3.50;91.80;;;;;;4890357;29;20033;-93
2020/12/09 00:29:03;;;;;;;45.70;19.17;;;3.50;91.80;;;;;;4890626;29;20372;-93
2020/12/09 00:31:30;;;;;;;45.73;19.97;;;3.50;91.90;;;;;;4889187;29;20024;-92
2020/12/09 00:33:57;;;;;;;48.37;19.67;;;3.50;91.80;;;;;;4889404;29;20029;-92
2020/12/09 00:36:23;;;;;;;46.27;17.30;;;3.40;91.80;;;;;;4888390;29;20518;-93
2020/12/09 00:38:50;;;;;;;35.47;18.17;;;3.40;91.90;;;;;;4888025;29;20041;-92
2020/12/09 00:41:26;;;;;;;42.17;18.70;;;3.40;91.90;;;;;;4873927;29;20033;-92
2020/12/09 00:43:52;;;;;;;45.73;18.57;;;3.40;92.00;;;;;;4869096;29;20037;-92
2020/12/09 00:46:24;;;;;;;55.23;19.37;;;3.30;92.00;;;;;;4869357;29;20385;-92
2020/12/09 00:48:50;;;;;;;61.63;18.83;;;3.30;92.10;;;;;;4869317;29;20505;-92
2020/12/09 00:51:17;;;;;;;46.87;18.23;;;3.30;92.10;;;;;;4869675;29;20060;-91
2020/12/09 00:53:44;;;;;;;54.27;18.23;;;3.30;92.10;;;;;;4868609;29;20029;-92
2020/12/09 00:56:09;;;;;;;54.17;18.00;;;3.20;92.20;;;;;;4869337;29;20036;-92
2020/12/09 00:58:36;;;;;;;41.03;18.13;;;3.20;92.30;;;;;;4869304;29;20037;-92
2020/12/09 01:01:03;;;;;;;54.80;18.63;;;3.10;92.30;;;;;;4868726;29;20033;-92
2020/12/09 01:03:30;;;;;;;44.13;17.50;;;3.10;92.50;;;;;;4868947;29;20472;-92
2020/12/09 01:05:55;;;;;;;43.70;18.63;;;3.10;92.60;;;;;;4868734;29;20117;-92
2020/12/09 01:08:21;;;;;;;38.13;17.30;;;3.00;92.60;;;;;;4868331;29;20021;-92
2020/12/09 01:10:46;;;;;;;58.80;18.90;;;3.00;92.70;;;;;;4868972;29;20419;-92
2020/12/09 01:13:14;;;;;;;51.67;17.80;;;3.00;92.70;;;;;;4885127;29;20040;-92
2020/12/09 01:15:40;;;;;;;48.23;16.97;;;3.00;92.80;;;;;;4868549;29;20037;-91
2020/12/09 01:18:05;;;;;;;67.03;16.93;;;3.00;92.70;;;;;;4869016;29;20061;-92
2020/12/09 01:20:31;;;;;;;40.37;17.33;;;3.00;92.70;;;;;;4869160;29;20036;-92
2020/12/09 01:22:56;;;;;;;39.03;17.70;;;2.90;92.80;;;;;;4868862;29;20036;-91
2020/12/09 01:25:22;;;;;;;59.43;17.97;;;2.90;92.80;;;;;;4868381;29;20391;-92
2020/12/09 01:27:47;;;;;;;46.27;17.23;;;2.90;92.70;;;;;;4868960;29;20025;-92
2020/12/09 01:30:13;;;;;;;50.13;17.50;;;2.90;92.80;;;;;;4868984;29;20303;-92
2020/12/09 01:32:39;;;;;;;41.20;17.47;;;3.00;92.70;;;;;;4868925;29;20417;-92
2020/12/09 01:35:05;;;;;;;37.00;17.20;;;3.00;92.60;;;;;;4867672;29;20081;-92
2020/12/09 01:37:30;;;;;;;61.20;19.17;;;2.90;92.60;;;;;;4867237;29;20029;-92
2020/12/09 01:39:56;;;;;;;32.90;16.53;;;3.00;92.60;;;;;;4871837;29;20032;-92
2020/12/09 01:42:22;;;;;;;36.57;17.23;;;3.00;92.70;;;;;;4886525;29;20043;-92
2020/12/09 01:44:47;;;;;;;35.90;15.57;;;2.90;92.60;;;;;;4888361;29;20119;-92
2020/12/09 01:47:13;;;;;;;41.60;16.43;;;3.00;92.50;;;;;;4887336;29;20035;-92
2020/12/09 01:49:39;;;;;;;38.63;16.07;;;3.00;92.40;;;;;;4885902;29;20028;-91
2020/12/09 01:52:05;;;;;;;38.40;17.17;;;3.00;92.40;;;;;;4885167;29;20154;-91
2020/12/09 01:54:32;;;;;;;37.53;17.03;;;3.00;92.30;;;;;;4886950;29;20095;-91
2020/12/09 01:57:08;;;;;;;34.93;15.70;;;2.90;92.30;;;;;;4889603;29;20036;-92
2020/12/09 01:59:35;;;;;;;31.70;16.27;;;3.00;92.30;;;;;;4888717;29;20052;-92
2020/12/09 02:02:01;;;;;;;33.87;16.70;;;3.00;92.50;;;;;;4887688;29;20025;-92
2020/12/09 02:04:28;;;;;;;29.10;15.70;;;3.00;92.20;;;;;;4885729;29;20029;-91
2020/12/09 02:06:54;;;;;;;34.70;16.90;;;2.90;92.20;;;;;;4885538;29;20032;-92
2020/12/09 02:09:22;;;;;;;34.40;16.60;;;3.00;92.30;;;;;;4886958;29;20035;-92
2020/12/09 02:11:49;;;;;;;35.23;16.33;;;3.00;92.30;;;;;;4886731;29;20056;-92
2020/12/09 02:14:14;;;;;;;35.17;17.37;;;3.00;92.20;;;;;;4918167;29;20084;-92
2020/12/09 02:16:40;;;;;;;30.63;16.23;;;3.00;92.20;;;;;;4886897;29;20094;-92
2020/12/09 02:19:05;;;;;;;40.13;17.40;;;3.00;92.30;;;;;;4885922;29;20033;-93
2020/12/09 02:21:35;;;;;;;28.50;15.93;;;3.00;92.30;;;;;;4885471;29;20064;-92
2020/12/09 02:24:02;;;;;;;57.83;17.10;;;3.00;92.30;;;;;;4885890;29;20039;-92
2020/12/09 02:26:28;;;;;;;36.03;17.07;;;3.00;92.20;;;;;;4885143;29;20024;-92
2020/12/09 02:28:55;;;;;;;31.90;15.50;;;3.00;92.20;;;;;;4884902;29;20025;-92
2020/12/09 02:31:20;;;;;;;50.23;17.50;;;3.10;92.20;;;;;;4885344;29;20028;-92
2020/12/09 02:33:46;;;;;;;35.70;17.83;;;3.00;92.20;;;;;;4884956;29;20025;-93
2020/12/09 02:36:11;;;;;;;35.87;18.30;;;3.00;92.30;;;;;;4884187;29;20063;-91
2020/12/09 02:38:37;;;;;;;40.40;18.50;;;3.00;92.40;;;;;;4885021;29;20447;-92
2020/12/09 02:41:03;;;;;;;33.13;17.60;;;3.00;92.40;;;;;;4873003;29;20085;-91
2020/12/09 02:43:29;;;;;;;38.33;18.00;;;2.90;92.40;;;;;;4866466;29;20037;-92
2020/12/09 02:45:55;;;;;;;37.80;19.57;;;3.00;92.50;;;;;;4865276;29;20065;-92
2020/12/09 02:48:21;;;;;;;42.13;18.47;;;3.00;92.40;;;;;;4866665;29;20054;-91
2020/12/09 02:50:46;;;;;;;32.30;17.63;;;3.00;92.50;;;;;;4866640;29;20558;-91
2020/12/09 02:53:12;;;;;;;35.03;18.13;;;3.00;92.30;;;;;;4868298;29;20041;-91
2020/12/09 02:55:37;;;;;;;37.20;18.50;;;3.10;92.20;;;;;;4876006;29;20033;-91
2020/12/09 02:58:03;;;;;;;35.67;17.70;;;3.20;92.10;;;;;;4865484;29;20033;-92
2020/12/09 03:00:28;;;;;;;38.27;17.23;;;3.20;92.10;;;;;;4865581;29;20516;-92
2020/12/09 03:02:54;;;;;;;52.30;18.20;;;3.20;92.10;;;;;;4865888;29;20037;-92
2020/12/09 03:05:20;;;;;;;35.70;17.70;;;3.20;92.10;;;;;;4864975;29;20061;-92
2020/12/09 03:07:45;;;;;;;34.53;18.07;;;3.10;92.10;;;;;;4864664;29;20037;-92
2020/12/09 03:10:11;;;;;;;38.50;19.07;;;3.10;92.10;;;;;;4865718;29;20127;-92
2020/12/09 03:12:36;;;;;;;33.07;17.00;;;3.10;92.20;;;;;;4866020;29;20033;-92
2020/12/09 03:15:03;;;;;;;37.77;19.43;;;3.10;92.10;;;;;;4866458;29;20037;-92
2020/12/09 03:17:28;;;;;;;36.33;18.03;;;3.10;92.20;;;;;;4866160;29;20029;-92
2020/12/09 03:19:55;;;;;;;40.60;18.50;;;3.10;92.20;;;;;;4865495;29;20029;-92
2020/12/09 03:22:21;;;;;;;38.70;17.80;;;3.10;92.10;;;;;;4865077;29;20120;-92
2020/12/09 03:24:46;;;;;;;35.73;18.23;;;3.10;92.20;;;;;;4865979;29;20053;-92
2020/12/09 03:27:13;;;;;;;34.83;18.23;;;3.10;92.20;;;;;;4865741;29;20543;-92
2020/12/09 03:29:38;;;;;;;40.07;18.43;;;3.10;92.30;;;;;;4864982;29;20077;-91
2020/12/09 03:32:05;;;;;;;33.40;18.27;;;3.10;92.30;;;;;;4866134;29;20025;-91
2020/12/09 03:34:30;;;;;;;32.43;17.73;;;3.10;92.30;;;;;;4866485;29;20036;-92
2020/12/09 03:36:56;;;;;;;37.30;18.97;;;3.10;92.20;;;;;;4868128;29;20037;-91
2020/12/09 03:39:21;;;;;;;37.13;18.37;;;3.20;92.20;;;;;;4869550;29;20059;-92
2020/12/09 03:41:47;;;;;;;45.37;19.17;;;3.20;92.20;;;;;;4887228;29;20097;-92
2020/12/09 03:44:13;;;;;;;34.33;18.10;;;3.10;92.20;;;;;;4887536;29;20037;-92
2020/12/09 03:46:38;;;;;;;37.90;18.47;;;3.10;92.30;;;;;;4887584;29;20060;-92
2020/12/09 03:49:04;;;;;;;33.90;18.00;;;3.10;92.30;;;;;;4887454;29;20025;-93
2020/12/09 03:51:30;;;;;;;33.20;17.80;;;3.10;92.40;;;;;;4886876;29;20124;-92
2020/12/09 03:53:55;;;;;;;39.80;18.73;;;3.10;92.40;;;;;;4887157;29;20050;-91
2020/12/09 03:56:21;;;;;;;31.70;17.40;;;3.10;92.40;;;;;;4887582;29;20033;-92
2020/12/09 03:58:46;;;;;;;32.10;17.63;;;3.10;92.50;;;;;;4884476;29;20029;-92
2020/12/09 04:01:12;;;;;;;35.80;19.30;;;3.10;92.40;;;;;;4886522;29;20494;-92
2020/12/09 04:03:37;;;;;;;35.90;17.93;;;3.20;92.30;;;;;;4887271;29;20403;-92
2020/12/09 04:06:04;;;;;;;33.80;17.47;;;3.20;92.30;;;;;;4886997;29;20033;-92
2020/12/09 04:08:29;;;;;;;32.60;18.40;;;3.20;92.20;;;;;;4886993;29;20036;-92
2020/12/09 04:10:55;;;;;;;34.00;18.87;;;3.20;92.20;;;;;;4887645;29;20028;-92
2020/12/09 04:13:20;;;;;;;34.27;17.20;;;3.30;92.10;;;;;;4886995;29;20032;-92
2020/12/09 04:15:46;;;;;;;33.23;18.03;;;3.30;92.10;;;;;;4887259;29;20448;-92
2020/12/09 04:18:11;;;;;;;34.47;18.67;;;3.30;92.10;;;;;;4887638;29;20045;-92
2020/12/09 04:20:37;;;;;;;36.13;17.93;;;3.20;92.10;;;;;;4886995;29;20036;-92
2020/12/09 04:23:03;;;;;;;37.63;18.20;;;3.20;92.20;;;;;;4887286;29;20119;-92
2020/12/09 04:25:29;;;;;;;29.87;16.63;;;3.30;92.10;;;;;;4888392;29;20056;-93
2020/12/09 04:27:54;;;;;;;33.97;17.60;;;3.30;92.10;;;;;;4887094;29;20021;-91
2020/12/09 04:30:20;;;;;;;43.20;18.50;;;3.20;92.10;;;;;;4886711;29;20052;-92
2020/12/09 04:32:46;;;;;;;37.77;18.83;;;3.30;92.20;;;;;;4887006;29;20044;-92
2020/12/09 04:35:11;;;;;;;38.40;19.20;;;3.30;92.20;;;;;;4887323;29;20025;-92
2020/12/09 04:37:38;;;;;;;34.83;18.13;;;3.30;92.10;;;;;;4887031;29;20024;-92
2020/12/09 04:40:05;;;;;;;39.23;19.63;;;3.30;92.10;;;;;;4885765;29;20541;-92
2020/12/09 04:42:31;;;;;;;34.30;18.73;;;3.30;92.10;;;;;;4886397;29;20123;-92
2020/12/09 04:44:57;;;;;;;34.50;18.20;;;3.30;92.10;;;;;;4886532;29;20086;-92
2020/12/09 04:47:28;;;;;;;35.47;19.17;;;3.30;92.10;;;;;;4886162;29;20040;-92
2020/12/09 04:50:08;;;;;;;40.20;18.77;;;3.30;92.10;;;;;;4886516;29;20120;-92
2020/12/09 04:52:42;;;;;;;35.43;17.90;;;3.20;92.30;;;;;;4886352;29;20024;-92
2020/12/09 04:55:10;;;;;;;34.70;17.40;;;3.20;92.30;;;;;;4885862;29;20368;-92
2020/12/09 04:57:50;;;;;;;35.57;18.40;;;3.20;92.20;;;;;;4886657;29;20529;-92
2020/12/09 05:00:16;;;;;;;35.87;18.43;;;3.30;92.20;;;;;;4887094;29;20048;-91
2020/12/09 05:02:54;;;;;;;38.67;19.57;;;3.30;92.10;;;;;;4887217;29;20039;-91
2020/12/09 05:05:22;;;;;;;41.80;20.20;;;3.30;92.10;;;;;;4889952;29;20025;-91
2020/12/09 05:07:54;;;;;;;36.27;19.73;;;3.30;92.20;;;;;;4891091;29;20080;-92
2020/12/09 05:10:24;;;;;;;35.83;19.23;;;3.20;92.20;;;;;;4890767;29;20036;-91
2020/12/09 05:12:52;;;;;;;37.87;19.23;;;3.20;92.30;;;;;;4889783;29;20482;-92
2020/12/09 05:15:24;;;;;;;38.87;20.17;;;3.20;92.30;;;;;;4888780;29;20154;-91
2020/12/09 05:18:08;;;;;;;37.67;20.03;;;3.20;92.40;;;;;;4888650;29;20056;-91
2020/12/09 05:20:36;;;;;;;39.57;19.13;;;3.20;92.40;;;;;;4888051;29;20032;-92
2020/12/09 05:23:03;;;;;;;36.27;20.07;;;3.20;92.30;;;;;;4887509;29;20038;-91
2020/12/09 05:25:31;;;;;;;34.13;18.67;;;3.20;92.30;;;;;;4888563;29;20123;-91
2020/12/09 05:27:57;;;;;;;36.77;19.20;;;3.20;92.30;;;;;;4888431;29;20029;-91
2020/12/09 05:30:51;;;;;;;36.37;19.30;;;3.20;92.30;;;;;;4886977;29;20029;-91
2020/12/09 05:33:18;;;;;;;39.20;19.93;;;3.30;92.30;;;;;;4886216;29;20040;-91
2020/12/09 05:36:02;;;;;;;35.13;18.40;;;3.20;92.30;;;;;;4886587;29;20490;-91
2020/12/09 05:38:29;;;;;;;35.03;19.13;;;3.20;92.30;;;;;;4898036;29;20127;-91
2020/12/09 05:40:55;;;;;;;35.87;18.73;;;3.30;92.30;;;;;;4885126;29;20040;-92
2020/12/09 05:43:21;;;;;;;36.37;18.60;;;3.30;92.30;;;;;;4885548;29;20325;-92
2020/12/09 05:45:47;;;;;;;38.27;20.13;;;3.30;92.20;;;;;;4886716;29;20040;-92
2020/12/09 05:48:18;;;;;;;42.63;20.60;;;3.30;92.10;;;;;;4886590;29;20059;-92
2020/12/09 05:50:45;;;;;;;38.20;19.77;;;3.30;92.20;;;;;;4889613;29;20025;-92
2020/12/09 05:53:31;;;;;;;38.27;19.87;;;3.30;92.30;;;;;;4883194;29;20035;-87
2020/12/09 05:56:22;;;;;;;40.27;19.50;;;3.30;92.30;;;;;;4914383;29;20029;-87
2020/12/09 05:58:51;;;;;;;38.60;19.23;;;3.30;92.40;;;;;;4881825;29;20033;-87
2020/12/09 06:01:20;;;;;;;36.28;19.40;;;3.20;92.30;;;;;;4885536;29;20029;-85
2020/12/09 06:03:51;;;;;;;39.20;19.17;;;3.30;92.30;;;;;;4887521;29;20033;-84
2020/12/09 06:06:19;;;;;;;38.40;19.97;;;3.30;92.20;;;;;;4905383;29;20033;-83
2020/12/09 06:08:56;;;;;;;41.23;19.40;;;3.30;92.10;;;;;;4888996;29;20376;-84
2020/12/09 06:11:22;;;;;;;37.80;18.60;;;3.30;92.10;;;;;;4887884;29;20025;-84
2020/12/09 06:13:48;;;;;;;37.87;18.90;;;3.40;92.10;;;;;;4888660;29;20059;-85
2020/12/09 06:16:17;;;;;;;39.27;19.47;;;3.40;92.10;;;;;;4888706;29;20041;-85
2020/12/09 06:18:48;;;;;;;37.55;17.88;;;3.40;92.00;;;;;;4919995;29;20087;-85
2020/12/09 06:21:14;;;;;;;37.77;19.90;;;3.30;92.00;;;;;;4888576;29;20067;-85
2020/12/09 06:23:40;;;;;;;39.93;19.63;;;3.40;92.00;;;;;;4905133;29;20060;-83
2020/12/09 06:26:07;;;;;;;38.93;19.27;;;3.30;92.00;;;;;;4885888;29;20440;-84
2020/12/09 06:28:36;;;;;;;38.00;19.00;;;3.30;92.10;;;;;;4889332;29;20028;-83
2020/12/09 06:31:13;;;;;;;38.77;20.40;;;3.30;92.10;;;;;;4888494;29;20024;-83
2020/12/09 06:33:42;;;;;;;34.67;17.87;;;3.30;92.20;;;;;;4890045;29;20029;-85
2020/12/09 06:36:12;;;;;;;34.28;18.65;;;3.30;92.20;;;;;;4917931;29;20032;-86
2020/12/09 06:38:38;;;;;;;35.23;18.77;;;3.40;92.10;;;;;;4889053;29;20672;-86
2020/12/09 06:41:04;;;;;;;32.47;17.43;;;3.30;92.10;;;;;;4885263;29;20286;-84
2020/12/09 06:43:29;;;;;;;35.03;18.50;;;3.30;92.10;;;;;;4885889;29;20056;-82
2020/12/09 06:45:55;;;;;;;33.73;17.83;;;3.30;92.10;;;;;;4902085;29;20052;-84
2020/12/09 06:48:21;;;;;;;40.27;20.60;;;3.30;92.10;;;;;;4885871;29;20025;-85
2020/12/09 06:50:47;;;;;;;33.87;18.97;;;3.30;92.20;;;;;;4885799;29;20051;-84
2020/12/09 06:53:21;;;;;;;38.53;20.63;;;3.30;92.20;;;;;;4903573;29;20081;-84
2020/12/09 06:55:49;;;;;;;37.50;18.77;;;3.20;92.20;;;;;;4886142;29;20025;-85
2020/12/09 06:58:28;;;;;;;37.77;19.70;;;3.20;92.30;;;;;;4904074;29;20020;-83
2020/12/09 07:01:01;;;;;;;;;;;3.20;92.30;;;;;;4889173;29;20048;-83
2020/12/09 07:03:29;;;;;;;34.67;18.60;;;3.20;92.30;;;;;;4880920;29;19911;-84
2020/12/09 07:05:55;;;;;;;36.50;18.90;;;3.20;92.30;;;;;;4885861;29;20065;-85
2020/12/09 07:08:21;;;;;;;37.20;19.53;;;3.20;92.40;;;;;;4894308;29;20024;-85
2020/12/09 07:10:47;;;;;;;36.10;19.07;;;3.30;92.30;;;;;;4883685;29;20483;-83
2020/12/09 07:13:14;;;;;;;35.83;17.93;;;3.30;92.20;;;;;;4886087;29;20105;-84
2020/12/09 07:15:47;;;;;;;37.50;19.90;;;3.30;92.20;;;;;;4904565;29;20029;-86
2020/12/09 07:18:13;;;;;;;38.70;19.97;;;3.40;92.10;;;;;;4903716;29;20041;-89
2020/12/09 07:20:40;;;;;;;34.90;19.13;;;3.40;92.00;;;;;;4888996;29;20617;-84
2020/12/09 07:23:06;;;;;;;35.87;19.77;;;3.30;92.00;;;;;;4904383;29;20021;-85
2020/12/09 07:25:33;;;;;;;36.27;19.20;;;3.30;92.10;;;;;;4904482;29;20096;-92
2020/12/09 07:28:03;;;;;;;39.73;19.77;;;3.30;92.50;;;;;;4893583;29;20084;-90
2020/12/09 07:30:29;;;;;;;33.53;18.20;;;3.30;92.10;;;;;;4894857;29;20032;-87
2020/12/09 07:32:55;;;;;;;34.63;18.03;;;3.30;92.10;;;;;;4914888;29;20398;-91
2020/12/09 07:35:21;;;;;;;36.40;19.33;;;3.30;92.10;;;;;;4894061;29;20108;-86
2020/12/09 07:37:55;;;;;;;35.00;18.10;;;3.30;92.00;;;;;;4924002;29;20076;-90
2020/12/09 07:40:29;;;;;;;34.93;18.63;;;3.30;92.00;;;;;;4892437;29;20032;-90
2020/12/09 07:43:12;;;;;;;34.77;18.73;;;3.30;92.10;;;;;;4890606;29;20506;-88
2020/12/09 07:45:44;;;;;;;33.27;17.53;;;3.30;92.10;;;;;;4885861;29;20021;-90
2020/12/09 07:48:12;;;;;;;32.93;16.93;;;3.30;92.10;;;;;;4869158;29;20036;-89
2020/12/09 07:50:39;;;;;;;35.27;18.33;;;3.20;92.10;;;;;;4888974;29;20025;-91
2020/12/09 07:53:16;;;;;;;35.93;18.43;;;3.20;92.20;;;;;;4896968;29;20012;-92
2020/12/09 07:55:42;;;;;;;31.47;16.37;;;3.30;92.10;;;;;;4888906;29;20115;-88
2020/12/09 07:58:14;;;;;;;34.27;17.63;;;3.30;91.90;;;;;;4904866;29;20412;-88
2020/12/09 08:00:41;;;;;;;33.80;16.23;;;3.30;91.90;;;;;;4871209;29;20045;-88
2020/12/09 08:03:19;;;;;;;33.60;19.43;;;3.30;91.90;;;;;;4907347;29;20088;-89
2020/12/09 08:05:46;;;;;;;37.10;17.90;;;3.30;91.90;;;;;;4893063;29;20033;-92
2020/12/09 08:08:20;;;;;;;34.03;17.90;;;3.20;91.90;;;;;;4900693;29;20062;-93
2020/12/09 08:10:47;;;;;;;33.20;17.37;;;3.20;92.00;;;;;;4903147;29;20104;-93
2020/12/09 08:13:21;;;;;;;35.30;17.53;;;3.30;91.90;;;;;;4904060;29;20028;-92
2020/12/09 08:16:00;;;;;;;34.60;17.13;;;3.30;91.90;;;;;;4900418;29;20061;-93
2020/12/09 08:18:29;;;;;;;36.03;18.80;;;3.20;92.00;;;;;;4905840;29;20025;-92
2020/12/09 08:20:55;;;;;;;35.25;18.20;;;3.20;92.00;;;;;;4895140;29;20045;-91
2020/12/09 08:23:38;;;;;;;35.20;18.67;;;3.10;92.00;;;;;;4903000;29;20083;-92
2020/12/09 08:26:04;;;;;;;33.67;18.47;;;3.10;92.10;;;;;;4902332;29;20029;-91
2020/12/09 08:28:33;;;;;;;36.87;19.00;;;3.10;92.20;;;;;;4903925;29;20403;-91
2020/12/09 08:30:58;;;;;;;36.65;19.45;;;3.10;92.30;;;;;;4889242;29;20424;-86
2020/12/09 08:33:26;;;;;;;34.30;19.20;;;3.00;92.40;;;;;;4884775;29;20040;-87
2020/12/09 08:35:59;;;;;;;36.70;19.20;;;3.00;92.40;;;;;;4884463;29;20029;-87
2020/12/09 08:38:35;;;;;;;38.30;20.03;;;3.00;92.50;;;;;;4893039;29;20101;-92
2020/12/09 08:41:05;;;;;;;38.20;19.83;;;3.00;92.50;;;;;;4898378;29;20050;-90
2020/12/09 08:43:34;;;;;;;38.10;20.57;;;3.00;92.40;;;;;;4894766;29;20084;-91
2020/12/09 08:46:00;;;;;;;41.42;21.88;;;3.00;92.40;;;;;;4899858;29;20017;-91
2020/12/09 08:48:26;;;;;;;38.60;20.20;;;3.00;92.40;;;;;;4889269;29;20032;-90
2020/12/09 08:50:52;;;;;;;40.30;20.30;;;3.10;92.40;;;;;;4887979;29;20031;-90
2020/12/09 08:53:19;;;;;;;39.93;21.33;;;3.10;92.40;;;;;;4893971;29;20032;-90
2020/12/09 08:55:49;;;;;;;43.13;21.27;;;3.10;92.50;;;;;;4893399;29;20057;-91
2020/12/09 08:58:16;;;;;;;39.20;21.38;;;3.00;92.50;;;;;;4896674;29;20097;-89
2020/12/09 09:00:42;;;;;;;39.73;20.23;;;3.00;92.50;;;;;;4895662;29;20059;-91
2020/12/09 09:03:12;;;;;;;37.20;19.63;;;3.00;92.50;;;;;;4898734;29;20103;-89
2020/12/09 09:05:40;;;;;;;39.57;21.07;;;3.10;92.30;;;;;;4917863;29;20145;-91
2020/12/09 09:08:09;;;;;;;39.33;19.97;;;3.20;92.20;;;;;;4901104;29;20032;-90
2020/12/09 09:10:38;;;;;;;43.30;21.50;;;3.10;92.20;;;;;;4900762;29;20033;-91
2020/12/09 09:13:05;;;;;;;42.53;21.93;;;3.20;92.20;;;;;;4904932;29;20045;-90
2020/12/09 09:15:31;;;;;;;40.83;20.87;;;3.20;92.10;;;;;;4895306;29;20081;-90
2020/12/09 09:18:05;;;;;;;42.73;21.87;;;3.20;92.10;;;;;;4896971;29;20115;-91
2020/12/09 09:20:31;;;;;;;41.53;21.10;;;3.20;92.10;;;;;;4893676;29;20039;-90
2020/12/09 09:22:57;;;;;;;37.63;21.50;;;3.20;92.00;;;;;;4891418;29;20040;-90
2020/12/09 09:25:24;;;;;;;39.90;20.63;;;3.20;92.00;;;;;;4886481;29;20037;-90
2020/12/09 09:27:51;;;;;;;40.17;21.03;;;3.20;92.00;;;;;;4890972;29;20140;-91
2020/12/09 09:30:21;;;;;;;48.00;24.27;;;3.20;92.00;;;;;;4895462;29;20039;-91
2020/12/09 09:32:47;;;;;;;43.43;21.10;;;3.10;92.00;;;;;;4898572;29;20036;-91
2020/12/09 09:35:12;;;;;;;39.67;20.90;;;3.10;92.10;;;;;;4897354;29;20065;-91
2020/12/09 09:37:41;;;;;;;44.87;22.47;;;3.20;92.10;;;;;;4897157;29;20112;-92
2020/12/09 09:40:08;;;;;;;40.00;21.43;;;3.20;92.10;;;;;;4895836;29;20053;-91
2020/12/09 09:42:34;;;;;;;42.17;22.03;;;3.20;92.10;;;;;;4895855;29;20033;-92
2020/12/09 09:45:02;;;;;;;45.23;22.43;;;3.20;92.00;;;;;;4892526;29;20037;-90
2020/12/09 09:47:27;;;;;;;43.73;22.73;;;3.10;92.10;;;;;;4892951;29;20037;-90
2020/12/09 09:49:53;;;;;;;44.87;23.33;;;3.10;92.10;;;;;;4897539;29;20056;-90
2020/12/09 09:52:18;;;;;;;45.27;24.43;;;3.10;92.20;;;;;;4899103;29;20040;-90
2020/12/09 09:54:44;;;;;;;45.27;22.90;;;3.00;92.40;;;;;;4891822;29;20108;-90
2020/12/09 09:57:10;;;;;;;44.97;20.77;;;3.00;92.40;;;;;;4900216;29;20037;-90
2020/12/09 09:59:59;;;;;;;45.23;21.10;;;3.00;92.60;;;;;;4895478;29;20057;-91
2020/12/09 10:02:25;;;;;;;42.97;22.13;;;3.10;92.30;;;;;;4884787;29;20062;-90
2020/12/09 10:04:51;;;;;;;41.50;20.27;;;3.10;92.20;;;;;;4877050;29;20051;-91
2020/12/09 10:07:31;;;;;;;41.83;21.63;;;3.10;92.20;;;;;;4883848;29;20045;-92
2020/12/09 10:10:01;;;;;;;44.57;23.73;;;3.10;92.10;;;;;;4882124;29;20070;-91
2020/12/09 10:12:26;;;;;;;43.97;21.90;;;3.10;92.20;;;;;;4878998;29;20103;-91
2020/12/09 10:14:53;;;;;;;45.57;21.90;;;3.10;92.20;;;;;;4884502;29;20029;-91
2020/12/09 10:17:22;;;;;;;42.93;21.70;;;3.10;92.30;;;;;;4876630;29;20021;-91
2020/12/09 10:19:51;;;;;;;;;;;3.10;92.40;;;;;;4886540;29;20093;-91
2020/12/09 10:25:58;;;;;;;42.53;20.60;;;3.00;92.40;;;;;;4863180;29;20554;-89
2020/12/09 10:28:23;;;;;;;40.23;20.70;;;3.00;92.50;;;;;;4880887;29;20033;-86
2020/12/09 10:30:49;;;;;;;45.53;22.57;;;3.10;92.50;;;;;;4884115;29;20042;-85
2020/12/09 10:33:14;;;;;;;45.13;23.20;;;3.00;92.50;;;;;;4879604;29;20040;-86
2020/12/09 10:35:44;;;;;;;41.47;21.67;;;3.00;92.50;;;;;;4847309;29;20072;-86
2020/12/09 10:38:09;;;;;;;;;;;3.10;92.60;;;;;;4862225;29;20056;-86
2020/12/09 10:40:35;;;;;;;43.67;21.53;;;3.10;92.50;;;;;;4845399;29;19912;-86
2020/12/09 10:43:01;;;;;;;43.03;21.20;;;3.10;92.20;;;;;;4847045;29;20038;-83
2020/12/09 10:45:26;;;;;;;43.43;20.57;;;3.10;92.40;;;;;;4865701;29;20034;-80
2020/12/09 10:47:52;;;;;;;43.77;22.47;;;3.10;92.40;;;;;;4866225;29;20440;-87
2020/12/09 10:50:17;;;;;;;45.07;22.13;;;3.10;92.30;;;;;;4864857;29;20750;-87
2020/12/09 10:52:43;;;;;;;43.87;22.03;;;3.20;92.20;;;;;;4864107;29;20284;-87
2020/12/09 10:55:08;;;;;;;44.93;22.60;;;3.20;92.20;;;;;;4849562;29;20117;-87
2020/12/09 10:57:34;;;;;;;46.23;23.20;;;3.10;92.20;;;;;;4866450;29;20070;-88
2020/12/09 10:59:59;;;;;;;44.53;22.80;;;3.10;92.30;;;;;;4867980;29;20026;-88
2020/12/09 11:02:25;;;;;;;45.20;22.90;;;3.10;92.40;;;;;;4873128;29;20444;-90
2020/12/09 11:04:50;;;;;;;43.83;22.33;;;3.10;92.50;;;;;;4867849;29;20240;-88
2020/12/09 11:07:16;;;;;;;41.63;22.23;;;3.10;92.40;;;;;;4863838;29;20031;-90
2020/12/09 11:09:42;;;;;;;46.90;23.10;;;3.10;92.50;;;;;;4863382;29;20033;-90
2020/12/09 11:12:08;;;;;;;48.60;23.77;;;3.10;92.40;;;;;;4863243;29;20030;-89
2020/12/09 11:14:35;;;;;;;45.80;22.57;;;3.10;92.50;;;;;;4862596;29;20276;-92
2020/12/09 11:17:02;;;;;;;46.17;22.80;;;3.10;92.50;;;;;;4861077;29;20435;-84
2020/12/09 11:19:27;;;;;;;44.07;22.00;;;3.10;92.60;;;;;;4858102;29;20025;-86
2020/12/09 11:21:53;;;;;;;49.60;23.67;;;3.30;92.60;;;;;;4842081;29;20106;-82
2020/12/09 11:24:19;;;;;;;48.33;23.93;;;3.40;92.40;;;;;;4847133;29;20030;-81
2020/12/09 11:26:45;;;;;;;55.97;27.33;;;3.50;92.20;;;;;;4860788;29;20140;-87
2020/12/09 11:29:11;;;;;;;54.37;27.10;;;3.60;92.00;;;;;;4845699;29;20026;-87
2020/12/09 11:31:38;;;;;;;51.33;25.23;;;3.60;91.90;;;;;;4872494;29;20480;-87
2020/12/09 11:34:04;;;;;;;55.30;25.57;;;3.60;91.90;;;;;;4848811;29;20026;-87
2020/12/09 11:36:29;;;;;;;53.00;25.80;;;3.60;91.80;;;;;;4850124;29;20034;-87
2020/12/09 11:38:56;;;;;;;56.17;26.63;;;3.50;91.70;;;;;;4865111;29;20093;-88
2020/12/09 11:41:30;;;;;;;55.47;28.13;;;3.50;91.80;;;;;;4863794;29;20113;-87
2020/12/09 11:43:57;;;;;;;56.47;27.60;;;3.40;91.90;;;;;;4879939;29;20026;-87
2020/12/09 11:46:23;;;;;;;63.23;29.37;;;3.30;92.00;;;;;;4879937;29;20037;-87
2020/12/09 11:48:49;;;;;;;56.37;27.93;;;3.30;92.10;;;;;;4879652;29;20029;-87
2020/12/09 11:51:15;;;;;;;61.50;28.37;;;3.30;92.10;;;;;;4864788;29;20049;-88
2020/12/09 11:53:42;;;;;;;64.83;28.93;;;3.40;92.00;;;;;;4868758;29;20037;-86
2020/12/09 11:56:08;;;;;;;61.40;29.77;;;3.40;92.00;;;;;;4901837;29;20042;-85
2020/12/09 11:58:34;;;;;;;65.23;30.93;;;3.40;92.00;;;;;;4902000;29;20022;-88
2020/12/09 12:00:59;;;;;;;60.40;29.13;;;3.40;92.10;;;;;;4871333;29;20033;-86
2020/12/09 12:03:25;;;;;;;61.63;28.43;;;3.30;92.10;;;;;;4862691;29;20030;-87
2020/12/09 12:05:54;;;;;;;61.27;29.10;;;3.30;92.10;;;;;;4850101;29;20144;-88
2020/12/09 12:08:19;;;;;;;55.85;26.83;;;3.30;92.10;;;;;;4864531;29;20096;-89
2020/12/09 12:10:45;;;;;;;58.37;28.90;;;3.40;92.20;;;;;;4847920;29;20526;-87
2020/12/09 12:13:11;;;;;;;58.60;28.17;;;3.30;92.00;;;;;;4847567;29;20117;-86
2020/12/09 12:15:36;;;;;;;63.03;29.57;;;3.30;92.20;;;;;;4864352;29;20049;-88
2020/12/09 12:18:02;;;;;;;59.83;28.50;;;3.30;92.10;;;;;;4865270;29;20369;-87
2020/12/09 12:20:28;;;;;;;59.43;27.47;;;3.30;92.00;;;;;;4847217;29;20037;-86
2020/12/09 12:22:54;;;;;;;59.40;28.77;;;3.30;92.00;;;;;;4846188;29;20369;-86
2020/12/09 12:25:19;;;;;;;57.10;25.97;;;3.30;92.10;;;;;;4859953;29;20052;-87
2020/12/09 12:27:45;;;;;;;57.00;28.70;;;3.30;92.10;;;;;;4878381;29;20056;-87
2020/12/09 12:30:11;;;;;;;63.10;26.97;;;3.30;92.00;;;;;;4847115;29;20057;-85
2020/12/09 12:32:37;;;;;;;52.10;26.10;;;3.20;92.10;;;;;;4847937;29;20144;-87
2020/12/09 12:35:03;;;;;;;58.97;28.50;;;3.20;92.20;;;;;;4865373;29;20036;-87
2020/12/09 12:37:33;;;;;;;55.50;27.70;;;3.20;92.20;;;;;;4864731;29;20034;-86
2020/12/09 12:39:58;;;;;;;52.57;25.67;;;3.20;92.30;;;;;;4876846;29;20040;-84
2020/12/09 12:42:24;;;;;;;50.90;24.43;;;3.20;92.30;;;;;;4878175;29;20454;-86
2020/12/09 12:44:49;;;;;;;47.00;24.67;;;3.20;92.20;;;;;;4848612;29;20037;-87